createdAt,value
2019-05-19T00:02:09.427Z,13.90
2019-05-19T00:04:41.258Z,13.90
2019-05-19T00:07:11.991Z,13.90
2019-05-19T00:09:43.731Z,13.90
2019-05-19T00:12:14.254Z,13.80
2019-05-19T00:14:44.931Z,13.80
2019-05-19T00:17:15.651Z,13.80
2019-05-19T00:19:47.361Z,13.80
2019-05-19T00:22:17.988Z,13.80
2019-05-19T00:24:48.109Z,13.90
2019-05-19T00:27:18.861Z,13.90
2019-05-19T00:29:50.591Z,13.90
2019-05-19T00:32:21.254Z,13.90
2019-05-19T00:34:52.019Z,13.90
2019-05-19T00:37:22.551Z,13.90
2019-05-19T00:39:54.288Z,13.90
2019-05-19T00:42:24.926Z,13.90
2019-05-19T00:44:55.563Z,13.90
2019-05-19T00:47:26.214Z,13.90
2019-05-19T00:49:57.391Z,13.90
2019-05-19T00:52:27.939Z,13.90
2019-05-19T00:54:58.617Z,13.80
2019-05-19T00:57:30.078Z,13.80
2019-05-19T01:00:02.481Z,13.80
2019-05-19T01:02:34.625Z,13.80
2019-05-19T01:05:07.776Z,13.80
2019-05-19T01:07:38.295Z,13.80
2019-05-19T01:10:10.536Z,13.80
2019-05-19T01:12:42.107Z,13.80
2019-05-19T01:15:13.054Z,13.80
2019-05-19T01:17:43.702Z,13.80
2019-05-19T01:20:17.536Z,13.70
2019-05-19T01:22:48.277Z,13.70
2019-05-19T01:25:19.150Z,13.70
2019-05-19T01:27:49.803Z,13.70
2019-05-19T01:30:22.398Z,13.70
2019-05-19T01:32:53.019Z,13.70
2019-05-19T01:35:23.125Z,13.70
2019-05-19T01:37:53.195Z,13.70
2019-05-19T01:40:24.975Z,13.70
2019-05-19T01:42:55.838Z,13.70
2019-05-19T01:45:26.504Z,13.70
2019-05-19T01:47:56.463Z,13.70
2019-05-19T01:50:29.115Z,13.70
2019-05-19T01:52:59.653Z,13.70
2019-05-19T01:55:30.309Z,13.60
2019-05-19T01:58:00.831Z,13.60
2019-05-19T02:00:32.461Z,13.60
2019-05-19T02:03:03.117Z,13.60
2019-05-19T02:05:33.874Z,13.60
2019-05-19T02:08:04.513Z,13.60
2019-05-19T02:10:36.210Z,13.60
2019-05-19T02:13:07.638Z,13.60
2019-05-19T02:15:38.366Z,13.50
2019-05-19T02:18:09.023Z,13.50
2019-05-19T02:20:40.273Z,13.50
2019-05-19T02:23:10.233Z,13.50
2019-05-19T02:25:40.886Z,13.50
2019-05-19T02:28:11.461Z,13.50
2019-05-19T02:30:43.314Z,13.50
2019-05-19T02:33:14.056Z,13.50
2019-05-19T02:35:44.816Z,13.50
2019-05-19T02:38:15.730Z,13.50
2019-05-19T02:40:52.419Z,13.50
2019-05-19T02:43:25.566Z,13.50
2019-05-19T02:45:59.279Z,13.50
2019-05-19T02:48:32.134Z,13.60
2019-05-19T02:51:04.845Z,13.60
2019-05-19T02:53:35.697Z,13.60
2019-05-19T02:56:07.164Z,13.60
2019-05-19T02:58:38.012Z,13.60
2019-05-19T03:01:08.798Z,13.60
2019-05-19T03:03:39.343Z,13.60
2019-05-19T03:06:10.411Z,13.60
2019-05-19T03:08:41.934Z,13.60
2019-05-19T03:11:12.584Z,13.60
2019-05-19T03:13:44.156Z,13.60
2019-05-19T03:16:14.363Z,13.60
2019-05-19T03:18:44.483Z,13.60
2019-05-19T03:21:15.245Z,13.50
2019-05-19T03:23:46.829Z,13.50
2019-05-19T03:26:17.621Z,13.50
2019-05-19T03:28:48.273Z,13.50
2019-05-19T03:31:23.383Z,13.50
2019-05-19T03:33:55.585Z,13.60
2019-05-19T03:36:25.772Z,13.60
2019-05-19T03:38:57.418Z,13.60
2019-05-19T03:41:28.270Z,13.60
2019-05-19T03:43:58.805Z,13.60
2019-05-19T03:46:29.458Z,13.60
2019-05-19T03:49:00.569Z,13.60
2019-05-19T03:51:31.994Z,13.60
2019-05-19T03:54:02.163Z,13.60
2019-05-19T03:56:32.344Z,13.60
2019-05-19T03:59:04.014Z,13.60
2019-05-19T04:01:34.648Z,13.60
2019-05-19T04:04:05.401Z,13.60
2019-05-19T04:06:36.070Z,13.60
2019-05-19T04:09:07.582Z,13.60
2019-05-19T04:11:38.345Z,13.60
2019-05-19T04:14:09.925Z,13.60
2019-05-19T04:16:40.685Z,13.60
2019-05-19T04:19:12.232Z,13.60
2019-05-19T04:21:48.664Z,13.60
2019-05-19T04:24:15.177Z,13.70
2019-05-19T04:26:45.889Z,13.70
2019-05-19T04:29:17.530Z,13.70
2019-05-19T04:31:48.187Z,13.70
2019-05-19T04:34:18.737Z,13.70
2019-05-19T04:36:49.359Z,13.60
2019-05-19T04:39:21.086Z,13.70
2019-05-19T04:41:51.873Z,13.70
2019-05-19T04:44:23.578Z,13.70
2019-05-19T04:46:54.388Z,13.70
2019-05-19T04:49:26.050Z,13.60
2019-05-19T04:52:06.223Z,13.70
2019-05-19T04:54:28.942Z,13.70
2019-05-19T04:56:59.023Z,13.70
2019-05-19T04:59:30.718Z,13.70
2019-05-19T05:02:01.405Z,13.70
2019-05-19T05:04:31.948Z,13.70
2019-05-19T05:07:02.625Z,13.70
2019-05-19T05:09:33.674Z,13.80
2019-05-19T05:12:04.436Z,13.80
2019-05-19T05:14:35.907Z,13.90
2019-05-19T05:17:09.132Z,13.90
2019-05-19T05:19:42.645Z,13.90
2019-05-19T05:22:22.168Z,13.90
2019-05-19T05:24:50.233Z,14.00
2019-05-19T05:27:23.424Z,14.00
2019-05-19T05:29:55.465Z,14.00
2019-05-19T05:32:28.413Z,14.00
2019-05-19T05:34:59.251Z,14.00
2019-05-19T05:37:29.921Z,14.00
2019-05-19T05:40:00.513Z,14.10
2019-05-19T05:42:32.016Z,14.10
2019-05-19T05:45:02.722Z,14.10
2019-05-19T05:47:34.466Z,14.10
2019-05-19T05:50:08.581Z,14.10
2019-05-19T05:52:39.336Z,14.10
2019-05-19T05:55:11.344Z,14.10
2019-05-19T05:57:42.033Z,14.10
2019-05-19T06:00:15.755Z,14.00
2019-05-19T06:02:45.194Z,14.00
2019-05-19T06:05:15.930Z,14.00
2019-05-19T06:07:46.592Z,14.00
2019-05-19T06:10:17.029Z,14.00
2019-05-19T06:12:47.727Z,14.00
2019-05-19T06:15:19.212Z,14.00
2019-05-19T06:17:49.980Z,14.00
2019-05-19T06:20:20.606Z,14.00
2019-05-19T06:22:56.690Z,14.10
2019-05-19T06:25:23.709Z,14.10
2019-05-19T06:27:53.884Z,14.10
2019-05-19T06:30:24.595Z,14.10
2019-05-19T06:32:59.673Z,14.10
2019-05-19T06:35:30.335Z,14.20
2019-05-19T06:38:01.030Z,14.20
2019-05-19T06:40:31.832Z,14.30
2019-05-19T06:43:02.579Z,14.40
2019-05-19T06:45:33.267Z,14.40
2019-05-19T06:48:03.457Z,14.40
2019-05-19T06:50:34.232Z,14.50
2019-05-19T06:53:13.867Z,14.60
2019-05-19T06:55:37.239Z,14.70
2019-05-19T06:58:07.995Z,14.70
2019-05-19T07:00:38.794Z,14.70
2019-05-19T07:03:09.673Z,14.70
2019-05-19T07:05:40.310Z,14.80
2019-05-19T07:08:10.959Z,14.80
2019-05-19T07:10:41.633Z,14.90
2019-05-19T07:13:12.511Z,15.00
2019-05-19T07:15:44.060Z,15.10
2019-05-19T07:18:14.813Z,15.10
2019-05-19T07:20:45.381Z,15.20
2019-05-19T07:23:27.382Z,15.20
2019-05-19T07:25:48.311Z,15.20
2019-05-19T07:28:19.229Z,15.20
2019-05-19T07:30:49.887Z,15.20
2019-05-19T07:33:20.514Z,15.20
2019-05-19T07:35:51.278Z,15.20
2019-05-19T07:38:22.050Z,15.20
2019-05-19T07:40:52.965Z,15.30
2019-05-19T07:43:23.633Z,15.30
2019-05-19T07:45:54.445Z,15.30
2019-05-19T07:48:25.133Z,15.50
2019-05-19T07:50:55.805Z,15.50
2019-05-19T07:53:26.615Z,15.60
2019-05-19T07:55:57.155Z,15.70
2019-05-19T07:58:27.803Z,15.70
2019-05-19T08:00:58.528Z,15.70
2019-05-19T08:03:29.223Z,15.80
2019-05-19T08:05:59.756Z,15.80
2019-05-19T08:08:30.534Z,15.80
2019-05-19T08:11:01.240Z,15.90
2019-05-19T08:13:32.116Z,16.10
2019-05-19T08:16:03.676Z,16.20
2019-05-19T08:18:34.362Z,16.30
2019-05-19T08:21:04.994Z,16.40
2019-05-19T08:23:35.712Z,16.40
2019-05-19T08:26:06.392Z,16.50
2019-05-19T08:28:37.055Z,16.50
2019-05-19T08:31:07.584Z,16.40
2019-05-19T08:33:38.328Z,16.50
2019-05-19T08:36:09.059Z,16.50
2019-05-19T08:38:39.907Z,16.50
2019-05-19T08:41:10.623Z,16.50
2019-05-19T08:43:41.376Z,16.40
2019-05-19T08:46:12.050Z,16.30
2019-05-19T08:48:42.727Z,16.30
2019-05-19T08:51:13.395Z,16.30
2019-05-19T08:53:44.615Z,16.40
2019-05-19T08:56:15.280Z,16.30
2019-05-19T08:58:46.080Z,16.40
2019-05-19T09:01:16.661Z,16.40
2019-05-19T09:03:47.406Z,16.50
2019-05-19T09:06:17.957Z,16.50
2019-05-19T09:08:48.621Z,16.60
2019-05-19T09:11:19.181Z,16.70
2019-05-19T09:13:49.939Z,16.70
2019-05-19T09:16:21.420Z,16.80
2019-05-19T09:18:52.176Z,16.80
2019-05-19T09:21:22.839Z,16.80
2019-05-19T09:23:53.675Z,16.80
2019-05-19T09:26:24.295Z,16.70
2019-05-19T09:28:55.156Z,16.70
2019-05-19T09:31:25.830Z,16.70
2019-05-19T09:33:57.690Z,16.70
2019-05-19T09:36:28.374Z,16.70
2019-05-19T09:39:00.131Z,16.60
2019-05-19T09:41:30.977Z,16.60
2019-05-19T09:44:01.653Z,16.60
2019-05-19T09:46:32.296Z,16.60
2019-05-19T09:49:21.657Z,16.60
2019-05-19T09:51:52.243Z,16.50
2019-05-19T09:54:23.062Z,16.50
2019-05-19T09:56:53.732Z,16.50
2019-05-19T09:59:25.458Z,16.50
2019-05-19T10:01:56.138Z,16.40
2019-05-19T10:04:26.876Z,16.30
2019-05-19T10:06:57.521Z,16.30
2019-05-19T10:09:34.844Z,16.20
2019-05-19T10:12:09.047Z,16.20
2019-05-19T10:14:39.939Z,16.10
2019-05-19T10:17:11.417Z,16.10
2019-05-19T10:19:44.138Z,16.10
2019-05-19T10:22:15.679Z,16.10
2019-05-19T10:25:03.838Z,16.10
2019-05-19T10:27:21.407Z,16.10
2019-05-19T10:29:50.847Z,16.10
2019-05-19T10:32:21.613Z,16.10
2019-05-19T10:34:52.390Z,16.20
2019-05-19T10:37:23.052Z,16.30
2019-05-19T10:39:54.821Z,16.40
2019-05-19T10:42:25.462Z,16.50
2019-05-19T10:44:56.121Z,16.60
2019-05-19T10:47:26.651Z,16.60
2019-05-19T10:49:59.400Z,16.60
2019-05-19T10:52:30.131Z,16.60
2019-05-19T10:55:00.859Z,16.70
2019-05-19T10:57:31.470Z,16.80
2019-05-19T11:00:03.138Z,16.90
2019-05-19T11:02:34.197Z,16.90
2019-05-19T11:05:10.588Z,16.90
2019-05-19T11:07:39.713Z,16.90
2019-05-19T11:10:13.451Z,16.90
2019-05-19T11:12:46.837Z,17.00
2019-05-19T11:15:16.784Z,17.00
2019-05-19T11:17:47.421Z,17.00
2019-05-19T11:20:19.222Z,17.10
2019-05-19T11:22:49.791Z,17.10
2019-05-19T11:25:33.341Z,17.10
2019-05-19T11:27:53.701Z,17.10
2019-05-19T11:30:24.364Z,17.20
2019-05-19T11:32:55.124Z,17.20
2019-05-19T11:35:25.874Z,17.20
2019-05-19T11:37:56.602Z,17.20
2019-05-19T11:40:28.286Z,17.20
2019-05-19T11:42:59.051Z,17.10
2019-05-19T11:45:29.958Z,17.20
2019-05-19T11:48:00.683Z,17.20
2019-05-19T11:50:33.223Z,17.30
2019-05-19T11:53:03.872Z,17.30
2019-05-19T11:55:35.768Z,17.40
2019-05-19T11:58:06.308Z,17.30
2019-05-19T12:00:38.142Z,17.40
2019-05-19T12:03:08.903Z,17.30
2019-05-19T12:05:39.645Z,17.30
2019-05-19T12:08:10.277Z,17.20
2019-05-19T12:10:41.895Z,17.10
2019-05-19T12:13:12.631Z,16.90
2019-05-19T12:15:43.378Z,16.90
2019-05-19T12:18:15.041Z,16.90
2019-05-19T12:20:46.786Z,16.80
2019-05-19T12:23:17.295Z,16.80
2019-05-19T12:25:48.125Z,16.80
2019-05-19T12:28:18.738Z,16.80
2019-05-19T12:30:50.437Z,16.80
2019-05-19T12:33:21.154Z,16.80
2019-05-19T12:35:51.798Z,16.90
2019-05-19T12:38:22.426Z,16.90
2019-05-19T12:40:54.182Z,16.90
2019-05-19T12:43:24.707Z,17.00
2019-05-19T12:45:55.492Z,16.90
2019-05-19T12:48:26.104Z,17.00
2019-05-19T12:50:57.833Z,16.90
2019-05-19T12:53:28.463Z,16.90
2019-05-19T12:55:59.269Z,16.80
2019-05-19T12:58:29.817Z,16.80
2019-05-19T13:01:00.471Z,16.80
2019-05-19T13:03:31.185Z,16.70
2019-05-19T13:06:01.911Z,16.70
2019-05-19T13:08:32.693Z,16.50
2019-05-19T13:11:03.464Z,16.40
2019-05-19T13:13:34.114Z,16.40
2019-05-19T13:16:04.951Z,16.30
2019-05-19T13:18:36.553Z,16.30
2019-05-19T13:21:07.340Z,16.30
2019-05-19T13:23:37.893Z,16.30
2019-05-19T13:26:08.747Z,16.30
2019-05-19T13:28:39.249Z,16.30
2019-05-19T13:31:09.934Z,16.30
2019-05-19T13:33:40.639Z,16.20
2019-05-19T13:36:11.274Z,16.10
2019-05-19T13:38:41.931Z,16.10
2019-05-19T13:41:12.689Z,16.20
2019-05-19T13:43:43.411Z,16.10
2019-05-19T13:46:14.176Z,16.20
2019-05-19T13:48:44.859Z,16.20
2019-05-19T13:51:16.543Z,16.20
2019-05-19T13:53:47.168Z,16.20
2019-05-19T13:56:18.071Z,16.20
2019-05-19T13:58:48.680Z,16.20
2019-05-19T14:01:27.990Z,16.30
2019-05-19T14:03:52.260Z,16.30
2019-05-19T14:06:24.159Z,16.40
2019-05-19T14:08:55.753Z,16.50
2019-05-19T14:11:26.485Z,16.60
2019-05-19T14:13:57.006Z,16.70
2019-05-19T14:16:27.653Z,16.70
2019-05-19T14:19:00.096Z,16.80
2019-05-19T14:21:30.782Z,16.70
2019-05-19T14:24:01.370Z,16.70
2019-05-19T14:26:32.101Z,16.70
2019-05-19T14:29:03.805Z,16.60
2019-05-19T14:31:34.596Z,16.60
2019-05-19T14:34:05.477Z,16.60
2019-05-19T14:36:36.306Z,16.50
2019-05-19T14:39:08.106Z,16.30
2019-05-19T14:41:40.465Z,16.30
2019-05-19T14:44:11.079Z,16.20
2019-05-19T14:46:41.738Z,16.10
2019-05-19T14:49:13.710Z,16.10
2019-05-19T14:51:44.347Z,15.90
2019-05-19T14:54:14.902Z,15.80
2019-05-19T14:56:45.685Z,15.70
2019-05-19T14:59:17.261Z,15.60
2019-05-19T15:01:47.904Z,15.50
2019-05-19T15:04:18.445Z,15.50
2019-05-19T15:06:49.159Z,15.50
2019-05-19T15:09:20.716Z,15.40
2019-05-19T15:11:51.326Z,15.50
2019-05-19T15:14:21.826Z,15.40
2019-05-19T15:16:52.467Z,15.40
2019-05-19T15:19:24.167Z,15.40
2019-05-19T15:21:54.900Z,15.40
2019-05-19T15:24:25.410Z,15.50
2019-05-19T15:26:56.111Z,15.50
2019-05-19T15:29:27.713Z,15.50
2019-05-19T15:31:58.339Z,15.50
2019-05-19T15:34:28.857Z,15.50
2019-05-19T15:36:59.586Z,15.50
2019-05-19T15:39:31.156Z,15.50
2019-05-19T15:42:01.882Z,15.50
2019-05-19T15:44:32.442Z,15.50
2019-05-19T15:47:03.180Z,15.50
2019-05-19T15:49:34.795Z,15.50
2019-05-19T15:52:06.389Z,15.60
2019-05-19T15:54:37.267Z,15.60
2019-05-19T15:57:08.079Z,15.60
2019-05-19T15:59:39.800Z,15.70
2019-05-19T16:02:10.491Z,15.70
2019-05-19T16:04:41.035Z,15.70
2019-05-19T16:07:12.004Z,15.70
2019-05-19T16:09:43.622Z,15.70
2019-05-19T16:12:14.253Z,15.70
2019-05-19T16:14:44.791Z,15.70
2019-05-19T16:17:15.525Z,15.80
2019-05-19T16:19:48.162Z,15.70
2019-05-19T16:22:18.801Z,15.80
2019-05-19T16:24:49.362Z,15.90
2019-05-19T16:27:20.253Z,15.90
2019-05-19T16:29:51.957Z,15.90
2019-05-19T16:32:22.603Z,15.90
2019-05-19T16:34:53.122Z,15.90
2019-05-19T16:37:23.790Z,15.90
2019-05-19T16:39:56.463Z,15.90
2019-05-19T16:42:28.013Z,15.80
2019-05-19T16:44:58.616Z,15.80
2019-05-19T16:47:29.263Z,15.80
2019-05-19T16:50:00.784Z,15.80
2019-05-19T16:52:31.412Z,15.90
2019-05-19T16:55:19.725Z,15.80
2019-05-19T16:57:50.644Z,15.80
2019-05-19T17:00:23.760Z,15.80
2019-05-19T17:02:54.594Z,15.80
2019-05-19T17:05:25.419Z,15.80
2019-05-19T17:07:56.148Z,15.90
2019-05-19T17:10:27.880Z,15.80
2019-05-19T17:12:58.711Z,15.80
2019-05-19T17:15:29.429Z,15.80
2019-05-19T17:18:00.069Z,15.70
2019-05-19T17:20:31.741Z,15.60
2019-05-19T17:23:02.486Z,15.60
2019-05-19T17:25:33.008Z,15.50
2019-05-19T17:28:03.715Z,15.60
2019-05-19T17:30:35.360Z,15.50
2019-05-19T17:33:05.991Z,15.50
2019-05-19T17:35:36.602Z,15.50
2019-05-19T17:38:07.225Z,15.40
2019-05-19T17:40:38.813Z,15.40
2019-05-19T17:43:09.437Z,15.30
2019-05-19T17:45:40.006Z,15.30
2019-05-19T17:48:25.387Z,15.30
2019-05-19T17:50:44.182Z,15.30
2019-05-19T17:53:16.250Z,15.30
2019-05-19T17:55:48.662Z,15.30
2019-05-19T17:58:20.042Z,15.30
2019-05-19T18:00:51.795Z,15.20
2019-05-19T18:03:23.349Z,15.20
2019-05-19T18:05:54.070Z,15.20
2019-05-19T18:08:24.723Z,15.20
2019-05-19T18:10:56.394Z,15.10
2019-05-19T18:13:27.079Z,15.10
2019-05-19T18:15:57.744Z,15.10
2019-05-19T18:18:29.583Z,15.10
2019-05-19T18:21:00.391Z,15.10
2019-05-19T18:23:31.288Z,15.10
2019-05-19T18:26:02.151Z,15.10
2019-05-19T18:28:37.191Z,15.00
2019-05-19T18:31:16.354Z,15.00
2019-05-19T18:33:52.081Z,15.00
2019-05-19T18:36:24.478Z,15.00
2019-05-19T18:38:55.444Z,14.90
2019-05-19T18:41:26.063Z,14.90
2019-05-19T18:43:56.724Z,14.80
2019-05-19T18:46:27.452Z,14.80
2019-05-19T18:48:58.323Z,14.80
2019-05-19T18:51:29.174Z,14.80
2019-05-19T18:53:59.830Z,14.80
2019-05-19T18:56:30.413Z,14.80
2019-05-19T18:59:02.191Z,14.70
2019-05-19T19:01:32.789Z,14.70
2019-05-19T19:04:03.518Z,14.70
2019-05-19T19:06:34.038Z,14.60
2019-05-19T19:09:06.857Z,14.60
2019-05-19T19:11:37.457Z,14.60
2019-05-19T19:14:08.178Z,14.60
2019-05-19T19:16:38.721Z,14.60
2019-05-19T19:19:10.554Z,14.60
2019-05-19T19:21:41.181Z,14.60
2019-05-19T19:24:12.009Z,14.60
2019-05-19T19:26:42.558Z,14.60
2019-05-19T19:29:13.757Z,14.60
2019-05-19T19:31:48.640Z,14.60
2019-05-19T19:34:16.755Z,14.60
2019-05-19T19:36:47.467Z,14.60
2019-05-19T19:39:18.275Z,14.60
2019-05-19T19:41:49.313Z,14.60
2019-05-19T19:44:20.236Z,14.50
2019-05-19T19:46:53.690Z,14.50
2019-05-19T19:49:23.838Z,14.60
2019-05-19T19:51:54.784Z,14.50
2019-05-19T19:54:25.795Z,14.50
2019-05-19T19:56:56.417Z,14.50
2019-05-19T19:59:27.332Z,14.50
2019-05-19T20:01:57.984Z,14.50
2019-05-19T20:04:28.739Z,14.50
2019-05-19T20:06:59.356Z,14.50
2019-05-19T20:09:30.149Z,14.50
2019-05-19T20:12:00.776Z,14.50
2019-05-19T20:14:31.554Z,14.50
2019-05-19T20:17:02.085Z,14.50
2019-05-19T20:19:32.849Z,14.50
2019-05-19T20:22:04.497Z,14.50
2019-05-19T20:24:35.135Z,14.50
2019-05-19T20:27:05.792Z,14.50
2019-05-19T20:29:36.559Z,14.50
2019-05-19T20:32:07.177Z,14.40
2019-05-19T20:34:37.906Z,14.40
2019-05-19T20:37:08.626Z,14.40
2019-05-19T20:39:39.305Z,14.40
2019-05-19T20:42:09.954Z,14.30
2019-05-19T20:44:40.117Z,14.40
2019-05-19T20:47:10.673Z,14.40
2019-05-19T20:49:41.396Z,14.40
2019-05-19T20:52:12.054Z,14.40
2019-05-19T20:54:43.820Z,14.40
2019-05-19T20:57:14.449Z,14.40
2019-05-19T20:59:45.311Z,14.40
2019-05-19T21:02:15.973Z,14.40
2019-05-19T21:04:46.732Z,14.40
2019-05-19T21:07:17.483Z,14.40
2019-05-19T21:09:48.179Z,14.40
2019-05-19T21:12:18.234Z,14.40
2019-05-19T21:14:48.892Z,14.40
2019-05-19T21:17:19.444Z,14.40
2019-05-19T21:19:51.837Z,14.40
2019-05-19T21:22:23.378Z,14.30
2019-05-19T21:24:55.088Z,14.30
2019-05-19T21:27:25.726Z,14.30
2019-05-19T21:29:56.016Z,14.30
2019-05-19T21:32:26.724Z,14.30
2019-05-19T21:34:57.474Z,14.40
2019-05-19T21:37:28.074Z,14.30
2019-05-19T21:39:58.840Z,14.30
2019-05-19T21:42:29.412Z,14.40
2019-05-19T21:45:00.164Z,14.40
2019-05-19T21:47:30.804Z,14.40
2019-05-19T21:50:01.652Z,14.40
2019-05-19T21:52:32.435Z,14.40
2019-05-19T21:55:03.185Z,14.40
2019-05-19T21:57:33.814Z,14.30
2019-05-19T22:00:08.670Z,14.30
2019-05-19T22:02:40.949Z,14.40
2019-05-19T22:05:11.736Z,14.40
2019-05-19T22:07:59.926Z,14.30
2019-05-19T22:10:32.031Z,14.30
2019-05-19T22:13:03.663Z,14.30
2019-05-19T22:15:34.402Z,14.30
2019-05-19T22:18:05.365Z,14.30
2019-05-19T22:20:36.399Z,14.30
2019-05-19T22:23:07.939Z,14.30
2019-05-19T22:25:38.773Z,14.30
2019-05-19T22:28:09.315Z,14.30
2019-05-19T22:30:40.019Z,14.30
2019-05-19T22:33:10.626Z,14.30
2019-05-19T22:35:41.563Z,14.30
2019-05-19T22:38:12.118Z,14.30
2019-05-19T22:40:44.008Z,14.30
2019-05-19T22:43:15.527Z,14.30
2019-05-19T22:45:46.226Z,14.30
2019-05-19T22:48:16.757Z,14.30
2019-05-19T22:50:48.457Z,14.30
2019-05-19T22:53:19.006Z,14.30
2019-05-19T22:55:49.650Z,14.30
2019-05-19T22:58:20.186Z,14.30
2019-05-19T23:00:51.002Z,14.30
2019-05-19T23:03:21.930Z,14.30
2019-05-19T23:05:52.681Z,14.30
2019-05-19T23:08:23.214Z,14.30
2019-05-19T23:10:53.925Z,14.30
2019-05-19T23:13:24.456Z,14.30
2019-05-19T23:15:55.203Z,14.30
2019-05-19T23:18:25.853Z,14.30
2019-05-19T23:20:57.567Z,14.20
2019-05-19T23:23:29.016Z,14.20
2019-05-19T23:25:59.688Z,14.20
2019-05-19T23:28:30.281Z,14.20
2019-05-19T23:31:00.995Z,14.20
2019-05-19T23:33:31.628Z,14.20
2019-05-19T23:36:02.312Z,14.20
2019-05-19T23:38:33.122Z,14.30
2019-05-19T23:41:03.341Z,14.20
2019-05-19T23:43:34.072Z,14.20
2019-05-19T23:46:04.834Z,14.20
2019-05-19T23:48:35.534Z,14.20
2019-05-19T23:51:05.628Z,14.20
2019-05-19T23:53:36.275Z,14.20
2019-05-19T23:56:07.141Z,14.20
2019-05-19T23:58:38.693Z,14.30
